Hovedside
METAR-TAF:

METAR-TAF

Lufthavner :

Kinloss, Skottland

breddegrad: 57-39N, lengdegrad: 003-34W, høyde over havet: 7 m

Gjeldene værobservasjon

Denne rapporten ble laget for 26 minutter siden, klokken 05:50 UTC
Vind 1 kt fra Nord
Temperatur 11°C
Luftfuktighet 100%
Trykk 1009 hPa
Sikt: 2600 m
lett duskregn,

METAR: EGQK 150550Z AUTO 35001KT 2600 -DZ BKN003/// 11/11 Q1009

Tid: 07:16 (06:16 UTC)


TAF: fraværende

Værobservasjoner og værvarsel for over 4000 flyplasser (METAR- og TAF-rapporter).

Tilgjengelige stasjoner er representert av de røde og gule prikkene på kartet.

Hold musepekeren over prikken for å se navnet på stasjonen.

Klikk så for å se værobservasjoner og -varsler.

For å forandre kartet kan du klikke på den grønne knappen med svart kryss for å zoome inn, på den grønne knappen med strek for å zoome ut, eller på de grønne pilene for å se tilstøtende kart.


METAR-TAF: